createdAt,value
2023-05-10T00:00:47.729Z,100716.69
2023-05-10T00:03:14.834Z,100721.00
2023-05-10T00:05:42.010Z,100708.56
2023-05-10T00:08:09.062Z,100705.00
2023-05-10T00:10:36.238Z,100705.81
2023-05-10T00:13:03.269Z,100705.84
2023-05-10T00:15:31.632Z,100701.44
2023-05-10T00:17:58.600Z,100703.16
2023-05-10T00:20:25.825Z,100708.38
2023-05-10T00:22:53.121Z,100713.56
2023-05-10T00:25:20.127Z,100703.00
2023-05-10T00:27:47.110Z,100710.19
2023-05-10T00:30:14.391Z,100700.44
2023-05-10T00:32:41.626Z,100703.16
2023-05-10T00:35:09.265Z,100711.03
2023-05-10T00:37:36.634Z,100710.19
2023-05-10T00:40:03.951Z,100707.44
2023-05-10T00:42:30.946Z,100703.09
2023-05-10T00:44:58.529Z,100707.34
2023-05-10T00:47:25.873Z,100705.47
2023-05-10T00:49:53.269Z,100709.84
2023-05-10T00:52:20.800Z,100706.25
2023-05-10T00:54:48.691Z,100700.97
2023-05-10T00:57:15.938Z,100707.19
2023-05-10T00:59:43.022Z,100713.28
2023-05-10T01:02:10.321Z,100706.22
2023-05-10T01:04:38.487Z,100702.69
2023-05-10T01:07:05.506Z,100715.06
2023-05-10T01:09:34.169Z,100703.63
2023-05-10T01:12:02.913Z,100703.63
2023-05-10T01:14:31.201Z,100706.34
2023-05-10T01:16:58.367Z,100706.34
2023-05-10T01:19:29.703Z,100708.91
2023-05-10T01:22:50.923Z,100710.75
2023-05-10T01:25:38.223Z,100712.56
2023-05-10T01:28:22.040Z,100707.25
2023-05-10T01:31:16.718Z,100710.72
2023-05-10T01:34:00.338Z,100707.13
2023-05-10T01:36:49.171Z,100703.56
2023-05-10T01:39:37.719Z,100701.91
2023-05-10T01:42:26.368Z,100705.41
2023-05-10T01:45:17.784Z,100707.19
2023-05-10T01:47:50.790Z,100709.78
2023-05-10T01:50:30.469Z,100712.44
2023-05-10T01:53:01.189Z,100713.19
2023-05-10T01:55:40.708Z,100715.00
2023-05-10T01:58:14.038Z,100713.28
2023-05-10T02:00:46.608Z,100713.41
2023-05-10T02:03:16.964Z,100707.25
2023-05-10T02:05:47.037Z,100711.75
2023-05-10T02:08:18.470Z,100707.53
2023-05-10T02:10:48.863Z,100711.94
2023-05-10T02:13:19.027Z,100706.78
2023-05-10T02:15:50.915Z,100717.53
2023-05-10T02:18:19.467Z,100716.69
2023-05-10T02:20:48.305Z,100721.00
2023-05-10T02:23:19.211Z,100723.63
2023-05-10T02:25:49.068Z,100728.06
2023-05-10T02:28:19.141Z,100728.06
2023-05-10T02:30:48.532Z,100717.50
2023-05-10T02:33:16.145Z,100729.00
2023-05-10T02:35:43.583Z,100723.75
2023-05-10T02:38:12.788Z,100730.84
2023-05-10T02:40:42.414Z,100729.03
2023-05-10T02:43:15.447Z,100738.69
2023-05-10T02:45:44.607Z,100739.59
2023-05-10T02:48:11.804Z,100736.03
2023-05-10T02:50:46.275Z,100736.81
2023-05-10T02:53:21.948Z,100737.66
2023-05-10T02:55:58.120Z,100734.94
2023-05-10T02:58:25.387Z,100732.38
2023-05-10T03:00:52.423Z,100736.06
2023-05-10T03:03:21.034Z,100733.38
2023-05-10T03:05:50.413Z,100743.16
2023-05-10T03:08:17.547Z,100740.44
2023-05-10T03:11:25.313Z,100737.06
2023-05-10T03:14:26.845Z,100736.22
2023-05-10T03:17:12.643Z,100737.94
2023-05-10T03:19:59.312Z,100735.31
2023-05-10T03:22:39.191Z,100745.00
2023-05-10T03:25:11.867Z,100748.56
2023-05-10T03:27:44.315Z,100741.53
2023-05-10T03:30:14.411Z,100746.78
2023-05-10T03:32:42.223Z,100747.72
2023-05-10T03:35:14.309Z,100748.50
2023-05-10T03:37:42.054Z,100753.00
2023-05-10T03:40:09.916Z,100751.16
2023-05-10T03:42:39.378Z,100755.56
2023-05-10T03:45:08.068Z,100762.59
2023-05-10T03:47:35.031Z,100760.78
2023-05-10T03:50:03.421Z,100762.59
2023-05-10T03:52:30.659Z,100764.22
2023-05-10T03:54:57.640Z,100771.22
2023-05-10T03:57:25.261Z,100771.22
2023-05-10T03:59:52.391Z,100775.53
2023-05-10T04:02:19.404Z,100767.59
2023-05-10T04:04:46.591Z,100765.91
2023-05-10T04:07:13.575Z,100764.97
2023-05-10T04:09:41.172Z,100767.59
2023-05-10T04:12:10.766Z,100768.41
2023-05-10T04:14:38.236Z,100770.13
2023-05-10T04:17:05.429Z,100781.59
2023-05-10T04:19:33.029Z,100779.81
2023-05-10T04:22:00.311Z,100772.84
2023-05-10T04:24:27.313Z,100775.44
2023-05-10T04:26:57.758Z,100771.78
2023-05-10T04:29:25.022Z,100778.00
2023-05-10T04:31:52.041Z,100777.16
2023-05-10T04:34:19.707Z,100776.31
2023-05-10T04:36:52.679Z,100775.31
2023-05-10T04:39:19.575Z,100776.97
2023-05-10T04:41:54.086Z,100780.50
2023-05-10T04:44:21.183Z,100786.56
2023-05-10T04:46:48.365Z,100783.06
2023-05-10T04:49:15.474Z,100786.44
2023-05-10T04:51:42.505Z,100789.88
2023-05-10T04:54:09.558Z,100788.03
2023-05-10T04:56:36.599Z,100790.63
2023-05-10T04:59:03.678Z,100797.63
2023-05-10T05:01:30.787Z,100798.47
2023-05-10T05:03:58.144Z,100792.28
2023-05-10T05:06:26.010Z,100800.28
2023-05-10T05:08:53.045Z,100794.13
2023-05-10T05:11:20.401Z,100796.75
2023-05-10T05:13:47.699Z,100799.47
2023-05-10T05:16:14.680Z,100799.38
2023-05-10T05:18:41.661Z,100807.16
2023-05-10T05:21:20.492Z,100797.56
2023-05-10T05:23:47.572Z,100799.47
2023-05-10T05:26:16.069Z,100801.41
2023-05-10T05:28:43.325Z,100805.63
2023-05-10T05:31:10.537Z,100802.75
2023-05-10T05:33:37.879Z,100806.97
2023-05-10T05:36:06.341Z,100807.72
2023-05-10T05:38:33.756Z,100815.66
2023-05-10T05:41:01.043Z,100813.94
2023-05-10T05:43:28.283Z,100817.50
2023-05-10T05:45:56.257Z,100811.41
2023-05-10T05:48:23.240Z,100815.91
2023-05-10T05:50:50.317Z,100827.47
2023-05-10T05:53:17.279Z,100827.47
2023-05-10T05:55:58.879Z,100826.78
2023-05-10T05:58:26.872Z,100822.69
2023-05-10T06:00:53.994Z,100829.75
2023-05-10T06:03:21.843Z,100828.16
2023-05-10T06:05:49.364Z,100835.34
2023-05-10T06:08:16.493Z,100837.25
2023-05-10T06:10:43.583Z,100844.50
2023-05-10T06:13:10.927Z,100838.38
2023-05-10T06:15:38.340Z,100838.19
2023-05-10T06:18:05.459Z,100841.50
2023-05-10T06:20:32.627Z,100853.69
2023-05-10T06:22:59.890Z,100847.38
2023-05-10T06:25:27.162Z,100850.78
2023-05-10T06:27:58.221Z,100860.44
2023-05-10T06:30:29.120Z,100852.50
2023-05-10T06:32:56.393Z,100862.13
2023-05-10T06:35:23.972Z,100854.13
2023-05-10T06:37:51.930Z,100860.69
2023-05-10T06:40:19.731Z,100861.75
2023-05-10T06:42:48.138Z,100871.09
2023-05-10T06:45:16.526Z,100864.72
2023-05-10T06:47:44.082Z,100864.53
2023-05-10T06:50:12.604Z,100860.81
2023-05-10T06:52:40.163Z,100863.25
2023-05-10T06:55:08.002Z,100873.72
2023-05-10T06:57:35.199Z,100878.03
2023-05-10T07:00:05.219Z,100881.47
2023-05-10T07:02:32.319Z,100879.84
2023-05-10T07:05:14.840Z,100886.16
2023-05-10T07:07:42.261Z,100887.09
2023-05-10T07:10:10.142Z,100888.16
2023-05-10T07:12:37.201Z,100895.22
2023-05-10T07:15:05.287Z,100894.31
2023-05-10T07:17:32.434Z,100893.31
2023-05-10T07:19:59.556Z,100892.28
2023-05-10T07:22:26.869Z,100897.50
2023-05-10T07:24:54.094Z,100897.50
2023-05-10T07:27:21.035Z,100895.72
2023-05-10T07:29:48.050Z,100898.50
2023-05-10T07:32:15.119Z,100896.75
2023-05-10T07:34:42.325Z,100903.97
2023-05-10T07:37:09.404Z,100905.81
2023-05-10T07:39:36.422Z,100906.72
2023-05-10T07:42:03.919Z,100910.13
2023-05-10T07:44:30.888Z,100915.44
2023-05-10T07:46:57.860Z,100919.94
2023-05-10T07:49:25.374Z,100914.84
2023-05-10T07:51:52.396Z,100915.75
2023-05-10T07:54:19.424Z,100913.97
2023-05-10T07:56:48.168Z,100915.75
2023-05-10T07:59:18.699Z,100912.84
2023-05-10T08:01:46.149Z,100918.84
2023-05-10T08:04:13.310Z,100923.66
2023-05-10T08:06:41.219Z,100919.63
2023-05-10T08:09:09.508Z,100922.75
2023-05-10T08:11:36.525Z,100924.50
2023-05-10T08:14:03.640Z,100928.91
2023-05-10T08:16:30.871Z,100929.09
2023-05-10T08:18:57.993Z,100925.72
2023-05-10T08:21:25.105Z,100930.22
2023-05-10T08:23:52.086Z,100934.88
2023-05-10T08:26:19.021Z,100941.09
2023-05-10T08:28:46.000Z,100941.22
2023-05-10T08:31:13.120Z,100949.25
2023-05-10T08:33:42.203Z,100944.78
2023-05-10T08:36:10.280Z,100944.59
2023-05-10T08:38:38.940Z,100951.38
2023-05-10T08:41:07.084Z,100949.38
2023-05-10T08:43:37.033Z,100962.38
2023-05-10T08:46:08.319Z,100960.06
2023-05-10T08:48:36.461Z,100950.78
2023-05-10T08:51:05.287Z,100949.59
2023-05-10T08:53:36.394Z,100961.59
2023-05-10T08:56:04.345Z,100955.00
2023-05-10T08:58:32.934Z,100968.66
2023-05-10T09:01:01.858Z,100967.13
2023-05-10T09:03:28.944Z,100964.56
2023-05-10T09:05:59.171Z,100971.69
2023-05-10T09:08:27.345Z,100977.63
2023-05-10T09:10:56.161Z,100974.69
2023-05-10T09:13:24.679Z,100978.09
2023-05-10T09:15:53.503Z,100981.41
2023-05-10T09:18:20.695Z,100982.00
2023-05-10T09:20:47.752Z,100985.13
2023-05-10T09:23:14.728Z,100985.06
2023-05-10T09:25:44.879Z,100986.91
2023-05-10T09:28:12.471Z,100991.59
2023-05-10T09:30:40.201Z,100995.31
2023-05-10T09:33:07.316Z,100996.34
2023-05-10T09:35:34.962Z,101000.19
2023-05-10T09:38:05.599Z,101001.19
2023-05-10T09:40:32.993Z,101006.63
2023-05-10T09:43:08.472Z,101003.28
2023-05-10T09:45:38.676Z,101007.69
2023-05-10T09:48:07.037Z,101005.44
2023-05-10T09:50:35.147Z,101016.09
2023-05-10T09:53:04.883Z,101016.47
2023-05-10T09:55:46.852Z,101018.00
2023-05-10T09:58:15.365Z,101020.41
2023-05-10T10:00:53.185Z,101018.03
2023-05-10T10:03:25.330Z,101024.34
2023-05-10T10:05:54.182Z,101018.75
2023-05-10T10:08:21.554Z,101026.16
2023-05-10T10:10:53.063Z,101026.91
2023-05-10T10:13:20.447Z,101030.88
2023-05-10T10:15:52.064Z,101030.47
2023-05-10T10:18:24.509Z,101032.41
2023-05-10T10:20:51.784Z,101032.53
2023-05-10T10:23:18.804Z,101031.28
2023-05-10T10:25:49.811Z,101033.44
2023-05-10T10:28:40.530Z,101033.53
2023-05-10T10:31:41.703Z,101036.75
2023-05-10T10:34:14.007Z,101030.81
2023-05-10T10:36:46.149Z,101036.94
2023-05-10T10:39:13.723Z,101035.16
2023-05-10T10:41:55.282Z,101036.34
2023-05-10T10:44:41.255Z,101030.00
2023-05-10T10:47:30.818Z,101033.13
2023-05-10T10:50:01.145Z,101029.63
2023-05-10T10:52:42.227Z,101034.16
2023-05-10T10:55:20.190Z,101032.97
2023-05-10T10:58:01.469Z,101039.84
2023-05-10T11:00:37.928Z,101032.59
2023-05-10T11:03:15.550Z,101042.50
2023-05-10T11:05:43.686Z,101037.50
2023-05-10T11:08:46.101Z,101044.53
2023-05-10T11:11:16.149Z,101043.59
2023-05-10T11:13:51.445Z,101048.03
2023-05-10T11:16:25.292Z,101042.09
2023-05-10T11:19:03.139Z,101050.53
2023-05-10T11:21:32.273Z,101054.69
2023-05-10T11:24:02.016Z,101056.78
2023-05-10T11:26:35.719Z,101055.69
2023-05-10T11:29:04.129Z,101064.16
2023-05-10T11:31:31.206Z,101060.94
2023-05-10T11:34:02.678Z,101053.06
2023-05-10T11:36:34.859Z,101061.00
2023-05-10T11:39:01.870Z,101060.09
2023-05-10T11:41:31.133Z,101058.91
2023-05-10T11:43:59.260Z,101056.13
2023-05-10T11:46:29.266Z,101060.16
2023-05-10T11:49:05.363Z,101061.44
2023-05-10T11:51:36.910Z,101053.63
2023-05-10T11:54:10.317Z,101060.63
2023-05-10T11:56:39.624Z,101055.53
2023-05-10T11:59:07.434Z,101055.66
2023-05-10T12:01:36.100Z,101052.38
2023-05-10T12:04:03.829Z,101061.06
2023-05-10T12:06:38.047Z,101064.44
2023-05-10T12:09:09.191Z,101062.13
2023-05-10T12:11:44.045Z,101063.94
2023-05-10T12:14:12.253Z,101069.97
2023-05-10T12:16:39.248Z,101059.53
2023-05-10T12:19:06.554Z,101057.09
2023-05-10T12:21:34.293Z,101061.41
2023-05-10T12:24:04.694Z,101064.00
2023-05-10T12:26:32.791Z,101061.72
2023-05-10T12:29:18.304Z,101060.09
2023-05-10T12:31:57.855Z,101061.88
2023-05-10T12:34:24.866Z,101062.03
2023-05-10T12:36:54.380Z,101064.94
2023-05-10T12:39:21.426Z,101070.66
2023-05-10T12:41:48.353Z,101065.38
2023-05-10T12:44:15.923Z,101077.09
2023-05-10T12:46:42.834Z,101082.94
2023-05-10T12:49:10.054Z,101075.72
2023-05-10T12:51:37.124Z,101083.88
2023-05-10T12:54:04.590Z,101084.13
2023-05-10T12:56:31.521Z,101086.28
2023-05-10T12:58:58.474Z,101095.28
2023-05-10T13:01:25.517Z,101089.28
2023-05-10T13:03:52.555Z,101091.19
2023-05-10T13:06:19.519Z,101101.09
2023-05-10T13:08:46.412Z,101101.81
2023-05-10T13:11:17.660Z,101093.81
2023-05-10T13:13:44.663Z,101091.81
2023-05-10T13:16:11.607Z,101093.41
2023-05-10T13:18:38.947Z,101091.09
2023-05-10T13:21:06.394Z,101095.75
2023-05-10T13:23:33.352Z,101095.91
2023-05-10T13:26:00.318Z,101087.16
2023-05-10T13:28:27.396Z,101092.25
2023-05-10T13:30:54.412Z,101096.31
2023-05-10T13:33:21.378Z,101089.84
2023-05-10T13:35:48.332Z,101094.59
2023-05-10T13:38:15.306Z,101101.47
2023-05-10T13:40:42.381Z,101105.97
2023-05-10T13:43:09.368Z,101104.63
2023-05-10T13:45:36.665Z,101104.16
2023-05-10T13:48:03.763Z,101104.44
2023-05-10T13:50:31.102Z,101104.03
2023-05-10T13:52:58.068Z,101098.03
2023-05-10T13:55:25.023Z,101097.72
2023-05-10T13:57:52.123Z,101096.72
2023-05-10T14:00:19.419Z,101107.94
2023-05-10T14:02:46.538Z,101104.97
2023-05-10T14:05:14.007Z,101108.38
2023-05-10T14:07:42.100Z,101111.53
2023-05-10T14:10:09.424Z,101106.53
2023-05-10T14:12:36.353Z,101109.31
2023-05-10T14:15:03.795Z,101098.53
2023-05-10T14:17:30.734Z,101103.38
2023-05-10T14:19:57.973Z,101100.63
2023-05-10T14:22:24.874Z,101103.16
2023-05-10T14:24:51.930Z,101101.84
2023-05-10T14:27:18.968Z,101092.25
2023-05-10T14:29:45.913Z,101094.97
2023-05-10T14:32:12.973Z,101101.47
2023-05-10T14:34:40.038Z,101104.44
2023-05-10T14:37:07.336Z,101102.50
2023-05-10T14:39:34.411Z,101097.78
2023-05-10T14:42:01.466Z,101112.56
2023-05-10T14:44:28.658Z,101113.25
2023-05-10T14:46:56.060Z,101112.16
2023-05-10T14:49:25.661Z,101112.22
2023-05-10T14:51:53.172Z,101102.00
2023-05-10T14:54:20.385Z,101112.97
2023-05-10T14:56:47.638Z,101111.63
2023-05-10T14:59:14.563Z,101104.84
2023-05-10T15:01:43.037Z,101104.50
2023-05-10T15:04:10.652Z,101107.00
2023-05-10T15:06:38.033Z,101107.94
2023-05-10T15:09:05.298Z,101109.69
2023-05-10T15:11:32.384Z,101096.00
2023-05-10T15:13:59.385Z,101097.84
2023-05-10T15:16:26.534Z,101102.53
2023-05-10T15:18:53.771Z,101107.91
2023-05-10T15:21:20.800Z,101102.63
2023-05-10T15:23:47.803Z,101106.81
2023-05-10T15:26:14.918Z,101102.97
2023-05-10T15:28:42.074Z,101110.34
2023-05-10T15:31:09.091Z,101119.25
2023-05-10T15:33:39.757Z,101118.94
2023-05-10T15:36:07.511Z,101125.41
2023-05-10T15:38:34.504Z,101118.72
2023-05-10T15:41:01.511Z,101124.81
2023-05-10T15:43:28.455Z,101120.66
2023-05-10T15:45:55.377Z,101124.81
2023-05-10T15:48:22.430Z,101127.22
2023-05-10T15:50:49.399Z,101128.69
2023-05-10T15:53:16.395Z,101134.28
2023-05-10T15:55:43.888Z,101134.72
2023-05-10T15:58:11.373Z,101129.41
2023-05-10T16:00:39.117Z,101125.25
2023-05-10T16:03:06.855Z,101133.19
2023-05-10T16:05:34.095Z,101128.38
2023-05-10T16:08:02.183Z,101128.75
2023-05-10T16:10:33.304Z,101133.09
2023-05-10T16:13:00.644Z,101130.13
2023-05-10T16:15:28.188Z,101132.41
2023-05-10T16:17:55.435Z,101136.72
2023-05-10T16:20:22.500Z,101136.34
2023-05-10T16:22:49.676Z,101144.50
2023-05-10T16:25:17.268Z,101139.22
2023-05-10T16:27:44.524Z,101140.75
2023-05-10T16:30:12.127Z,101147.94
2023-05-10T16:32:39.536Z,101145.75
2023-05-10T16:35:07.705Z,101150.41
2023-05-10T16:37:34.958Z,101155.13
2023-05-10T16:40:02.013Z,101159.34
2023-05-10T16:42:29.350Z,101168.69
2023-05-10T16:44:56.370Z,101167.94
2023-05-10T16:47:26.652Z,101166.75
2023-05-10T16:49:53.882Z,101172.66
2023-05-10T16:52:20.860Z,101173.53
2023-05-10T16:54:47.863Z,101175.66
2023-05-10T16:57:14.903Z,101176.94
2023-05-10T16:59:42.095Z,101178.06
2023-05-10T17:02:09.269Z,101178.47
2023-05-10T17:04:36.502Z,101181.38
2023-05-10T17:07:04.015Z,101181.38
2023-05-10T17:09:30.956Z,101181.47
2023-05-10T17:11:58.006Z,101176.28
2023-05-10T17:14:24.969Z,101173.53
2023-05-10T17:16:53.166Z,101177.16
2023-05-10T17:19:20.345Z,101174.72
2023-05-10T17:21:47.651Z,101180.41
2023-05-10T17:24:15.442Z,101177.13
2023-05-10T17:26:42.496Z,101177.13
2023-05-10T17:29:10.356Z,101179.38
2023-05-10T17:31:37.361Z,101185.81
2023-05-10T17:34:05.835Z,101184.34
2023-05-10T17:36:33.399Z,101178.72
2023-05-10T17:39:01.071Z,101183.88
2023-05-10T17:41:28.602Z,101194.91
2023-05-10T17:43:55.712Z,101196.31
2023-05-10T17:46:22.842Z,101199.28
2023-05-10T17:48:50.679Z,101189.09
2023-05-10T17:51:18.866Z,101193.06
2023-05-10T17:53:45.940Z,101188.22
2023-05-10T17:56:12.949Z,101186.94
2023-05-10T17:58:39.967Z,101182.25
2023-05-10T18:01:07.127Z,101192.44
2023-05-10T18:03:35.901Z,101189.44
2023-05-10T18:06:04.286Z,101193.47
2023-05-10T18:08:31.607Z,101190.41
2023-05-10T18:10:58.631Z,101199.69
2023-05-10T18:13:25.755Z,101198.09
2023-05-10T18:15:53.258Z,101194.81
2023-05-10T18:18:20.381Z,101202.03
2023-05-10T18:20:47.514Z,101204.91
2023-05-10T18:23:15.322Z,101200.72
2023-05-10T18:25:42.607Z,101202.75
2023-05-10T18:28:09.780Z,101209.06
2023-05-10T18:30:37.406Z,101211.00
2023-05-10T18:33:04.454Z,101205.94
2023-05-10T18:35:31.519Z,101212.38
2023-05-10T18:37:58.550Z,101212.59
2023-05-10T18:40:27.409Z,101220.88
2023-05-10T18:42:54.477Z,101219.38
2023-05-10T18:45:21.537Z,101218.69
2023-05-10T18:47:48.664Z,101215.44
2023-05-10T18:50:17.207Z,101214.84
2023-05-10T18:52:44.208Z,101215.03
2023-05-10T18:55:11.386Z,101217.03
2023-05-10T18:57:41.466Z,101220.72
2023-05-10T19:00:12.196Z,101231.53
2023-05-10T19:02:41.075Z,101236.94
2023-05-10T19:05:08.737Z,101227.47
2023-05-10T19:07:36.164Z,101233.72
2023-05-10T19:10:03.421Z,101234.66
2023-05-10T19:12:30.685Z,101231.16
2023-05-10T19:14:57.657Z,101232.94
2023-05-10T19:17:24.752Z,101233.88
2023-05-10T19:19:51.811Z,101233.88
2023-05-10T19:22:31.921Z,101233.00
2023-05-10T19:25:04.367Z,101240.22
2023-05-10T19:27:32.739Z,101235.16
2023-05-10T19:30:01.636Z,101242.44
2023-05-10T19:32:29.006Z,101244.47
2023-05-10T19:34:56.760Z,101239.53
2023-05-10T19:37:24.810Z,101246.06
2023-05-10T19:39:51.917Z,101245.53
2023-05-10T19:42:20.678Z,101248.44
2023-05-10T19:44:48.114Z,101252.22
2023-05-10T19:47:15.307Z,101255.94
2023-05-10T19:49:42.366Z,101258.69
2023-05-10T19:52:10.655Z,101258.88
2023-05-10T19:54:38.158Z,101268.81
2023-05-10T19:57:05.149Z,101282.16
2023-05-10T19:59:32.219Z,101273.44
2023-05-10T20:01:59.238Z,101277.00
2023-05-10T20:04:28.825Z,101270.81
2023-05-10T20:06:56.198Z,101272.72
2023-05-10T20:09:23.403Z,101271.13
2023-05-10T20:11:50.356Z,101272.88
2023-05-10T20:14:18.334Z,101280.03
2023-05-10T20:16:45.520Z,101266.84
2023-05-10T20:19:12.788Z,101278.28
2023-05-10T20:21:39.848Z,101275.81
2023-05-10T20:24:07.812Z,101273.31
2023-05-10T20:26:34.946Z,101277.00
2023-05-10T20:29:01.901Z,101275.31
2023-05-10T20:31:29.163Z,101281.69
2023-05-10T20:33:56.270Z,101280.13
2023-05-10T20:36:23.425Z,101270.69
2023-05-10T20:38:50.503Z,101277.00
2023-05-10T20:41:17.453Z,101270.94
2023-05-10T20:43:44.363Z,101276.47
2023-05-10T20:46:11.559Z,101273.97
2023-05-10T20:48:38.627Z,101274.13
2023-05-10T20:51:05.663Z,101270.75
2023-05-10T20:53:32.689Z,101275.28
2023-05-10T20:55:59.704Z,101271.88
2023-05-10T20:58:26.746Z,101269.31
2023-05-10T21:00:53.741Z,101277.38
2023-05-10T21:03:20.708Z,101279.22
2023-05-10T21:05:47.644Z,101276.72
2023-05-10T21:08:14.624Z,101274.06
2023-05-10T21:10:41.595Z,101272.34
2023-05-10T21:13:08.568Z,101278.53
2023-05-10T21:15:36.020Z,101272.38
2023-05-10T21:18:03.281Z,101274.97
2023-05-10T21:20:31.133Z,101283.81
2023-05-10T21:22:58.364Z,101275.81
2023-05-10T21:25:25.385Z,101281.25
2023-05-10T21:27:52.351Z,101283.06
2023-05-10T21:30:19.969Z,101281.41
2023-05-10T21:32:47.057Z,101284.22
2023-05-10T21:35:14.137Z,101285.22
2023-05-10T21:37:41.096Z,101280.03
2023-05-10T21:40:08.843Z,101279.16
2023-05-10T21:42:35.817Z,101280.88
2023-05-10T21:45:03.089Z,101280.03
2023-05-10T21:47:30.270Z,101284.44
2023-05-10T21:49:57.265Z,101286.16
2023-05-10T21:52:24.201Z,101287.00
2023-05-10T21:54:51.325Z,101284.34
2023-05-10T21:57:18.467Z,101285.22
2023-05-10T21:59:45.725Z,101286.00
2023-05-10T22:02:12.877Z,101283.22
2023-05-10T22:04:39.918Z,101291.91
2023-05-10T22:07:06.911Z,101285.72
2023-05-10T22:09:33.874Z,101289.97
2023-05-10T22:12:01.068Z,101290.78
2023-05-10T22:14:28.013Z,101288.97
2023-05-10T22:16:55.017Z,101291.56
2023-05-10T22:19:22.058Z,101295.00
2023-05-10T22:21:49.208Z,101290.50
2023-05-10T22:24:16.263Z,101286.94
2023-05-10T22:26:43.183Z,101301.91
2023-05-10T22:29:10.212Z,101290.41
2023-05-10T22:31:37.501Z,101288.66
2023-05-10T22:34:04.594Z,101292.19
2023-05-10T22:36:32.458Z,101297.41
2023-05-10T22:38:59.446Z,101298.25
2023-05-10T22:41:26.431Z,101298.13
2023-05-10T22:43:53.414Z,101303.38
2023-05-10T22:46:20.391Z,101301.66
2023-05-10T22:48:48.463Z,101299.06
2023-05-10T22:51:15.465Z,101308.78
2023-05-10T22:53:42.501Z,101301.66
2023-05-10T22:56:09.692Z,101298.94
2023-05-10T22:58:36.885Z,101303.31
2023-05-10T23:01:04.075Z,101303.31
2023-05-10T23:03:31.175Z,101299.84
2023-05-10T23:05:58.157Z,101300.78
2023-05-10T23:08:26.312Z,101307.00
2023-05-10T23:10:53.317Z,101300.84
2023-05-10T23:13:21.755Z,101299.84
2023-05-10T23:15:48.808Z,101307.72
2023-05-10T23:18:15.848Z,101304.25
2023-05-10T23:20:43.216Z,101299.84
2023-05-10T23:23:10.979Z,101299.84
2023-05-10T23:25:38.628Z,101296.41
2023-05-10T23:28:05.786Z,101297.28
2023-05-10T23:30:32.881Z,101304.38
2023-05-10T23:32:59.919Z,101295.53
2023-05-10T23:35:27.255Z,101297.28
2023-05-10T23:37:54.568Z,101299.84
2023-05-10T23:40:21.588Z,101299.00
2023-05-10T23:42:48.575Z,101296.38
2023-05-10T23:45:15.662Z,101308.56
2023-05-10T23:47:42.756Z,101302.34
2023-05-10T23:50:10.669Z,101304.06
2023-05-10T23:52:37.646Z,101311.13
2023-05-10T23:55:05.126Z,101298.78
2023-05-10T23:57:32.098Z,101299.69
2023-05-10T23:59:59.026Z,101300.53
